Terminal Aerodrome Forecast
Issued by NWS

Home | Current Version | Previous Version | Text Only | Print | Product List | Glossary On
Versions: 1 2 3 4 5 6 7 8 9 10 11 12 13 14 15
396
FTUS41 KPBZ 261124
TAFDUJ
TAF
KDUJ 261124Z 2612/2712 00000KT 3SM BR BKN250
      TEMPO 2612/2613 2SM BR
     FM261400 00000KT P6SM SCT250
     FM261800 00000KT P6SM SCT050=

USA.gov is the U.S. government's official web portal to all federal, state and local government web resources and services.